sensor_id;sensor_type;location;lat;lon;timestamp;pressure;altitude;pressure_sealevel;temperature;humidity
11676;BME280;5894;42.768;23.404;2022-08-01T00:01:47;95535.78;;;19.91;100.00
11676;BME280;5894;42.768;23.404;2022-08-01T00:04:14;95539.22;;;19.92;100.00
11676;BME280;5894;42.768;23.404;2022-08-01T00:06:40;95538.81;;;19.90;100.00
11676;BME280;5894;42.768;23.404;2022-08-01T00:09:09;95533.03;;;19.88;100.00
11676;BME280;5894;42.768;23.404;2022-08-01T00:11:35;95532.22;;;19.84;100.00
11676;BME280;5894;42.768;23.404;2022-08-01T00:14:02;95538.31;;;19.81;100.00
11676;BME280;5894;42.768;23.404;2022-08-01T00:16:29;95534.69;;;19.69;100.00
11676;BME280;5894;42.768;23.404;2022-08-01T00:18:56;95533.44;;;19.63;100.00
11676;BME280;5894;42.768;23.404;2022-08-01T00:21:23;95531.50;;;19.60;100.00
11676;BME280;5894;42.768;23.404;2022-08-01T00:23:50;95531.44;;;19.57;100.00
11676;BME280;5894;42.768;23.404;2022-08-01T00:26:18;95535.59;;;19.54;100.00
11676;BME280;5894;42.768;23.404;2022-08-01T00:28:45;95529.91;;;19.56;100.00
11676;BME280;5894;42.768;23.404;2022-08-01T00:31:12;95526.78;;;19.50;100.00
11676;BME280;5894;42.768;23.404;2022-08-01T00:33:39;95514.00;;;19.43;100.00
11676;BME280;5894;42.768;23.404;2022-08-01T00:36:06;95524.13;;;19.54;100.00
11676;BME280;5894;42.768;23.404;2022-08-01T00:38:33;95513.03;;;19.52;100.00
11676;BME280;5894;42.768;23.404;2022-08-01T00:40:59;95508.63;;;19.40;100.00
11676;BME280;5894;42.768;23.404;2022-08-01T00:43:28;95504.28;;;19.32;100.00
11676;BME280;5894;42.768;23.404;2022-08-01T00:45:55;95513.91;;;19.36;100.00
11676;BME280;5894;42.768;23.404;2022-08-01T00:48:22;95505.13;;;19.36;100.00
11676;BME280;5894;42.768;23.404;2022-08-01T00:50:49;95515.34;;;19.30;100.00
11676;BME280;5894;42.768;23.404;2022-08-01T00:53:16;95514.09;;;19.24;100.00
11676;BME280;5894;42.768;23.404;2022-08-01T00:55:43;95504.66;;;19.30;100.00
11676;BME280;5894;42.768;23.404;2022-08-01T00:58:10;95505.88;;;19.36;100.00
11676;BME280;5894;42.768;23.404;2022-08-01T01:00:38;95504.06;;;19.40;100.00
11676;BME280;5894;42.768;23.404;2022-08-01T01:03:05;95503.16;;;19.33;100.00
11676;BME280;5894;42.768;23.404;2022-08-01T01:05:36;95499.69;;;19.32;100.00
11676;BME280;5894;42.768;23.404;2022-08-01T01:08:09;95491.22;;;19.27;100.00
11676;BME280;5894;42.768;23.404;2022-08-01T01:10:44;95493.53;;;19.28;100.00
11676;BME280;5894;42.768;23.404;2022-08-01T01:13:18;95498.47;;;19.26;100.00
11676;BME280;5894;42.768;23.404;2022-08-01T01:15:51;95497.94;;;19.17;100.00
11676;BME280;5894;42.768;23.404;2022-08-01T01:18:24;95476.75;;;19.05;100.00
11676;BME280;5894;42.768;23.404;2022-08-01T01:20:57;95448.81;;;18.80;100.00
11676;BME280;5894;42.768;23.404;2022-08-01T01:26:26;95496.22;;;19.05;100.00
11676;BME280;5894;42.768;23.404;2022-08-01T01:29:09;95461.28;;;18.72;100.00
11676;BME280;5894;42.768;23.404;2022-08-01T01:31:43;95499.47;;;18.95;100.00
11676;BME280;5894;42.768;23.404;2022-08-01T01:34:13;95485.06;;;18.77;100.00
11676;BME280;5894;42.768;23.404;2022-08-01T01:36:41;95494.31;;;18.83;100.00
11676;BME280;5894;42.768;23.404;2022-08-01T01:39:09;95494.66;;;18.82;100.00
11676;BME280;5894;42.768;23.404;2022-08-01T01:41:37;95467.56;;;18.60;100.00
11676;BME280;5894;42.768;23.404;2022-08-01T01:44:07;95483.00;;;18.70;100.00
11676;BME280;5894;42.768;23.404;2022-08-01T01:46:36;95482.63;;;18.68;100.00
11676;BME280;5894;42.768;23.404;2022-08-01T01:49:05;95484.72;;;18.59;100.00
11676;BME280;5894;42.768;23.404;2022-08-01T01:51:36;95467.75;;;18.52;100.00
11676;BME280;5894;42.768;23.404;2022-08-01T01:54:04;95473.75;;;18.45;100.00
11676;BME280;5894;42.768;23.404;2022-08-01T01:56:33;95454.38;;;18.29;100.00
11676;BME280;5894;42.768;23.404;2022-08-01T01:59:17;95476.13;;;18.50;100.00
11676;BME280;5894;42.768;23.404;2022-08-01T02:01:47;95468.84;;;18.47;100.00
11676;BME280;5894;42.768;23.404;2022-08-01T02:04:14;95443.28;;;18.27;100.00
11676;BME280;5894;42.768;23.404;2022-08-01T02:06:43;95464.91;;;18.41;100.00
11676;BME280;5894;42.768;23.404;2022-08-01T02:09:14;95458.66;;;18.33;100.00
11676;BME280;5894;42.768;23.404;2022-08-01T02:11:43;95465.25;;;18.40;100.00
11676;BME280;5894;42.768;23.404;2022-08-01T02:14:11;95469.75;;;18.36;100.00
11676;BME280;5894;42.768;23.404;2022-08-01T02:16:43;95476.44;;;18.26;100.00
11676;BME280;5894;42.768;23.404;2022-08-01T02:19:11;95475.81;;;18.13;100.00
11676;BME280;5894;42.768;23.404;2022-08-01T02:21:40;95471.59;;;18.12;100.00
11676;BME280;5894;42.768;23.404;2022-08-01T02:24:13;95477.63;;;18.09;100.00
11676;BME280;5894;42.768;23.404;2022-08-01T02:26:45;95475.16;;;18.01;100.00
11676;BME280;5894;42.768;23.404;2022-08-01T02:29:18;95472.41;;;17.97;100.00
11676;BME280;5894;42.768;23.404;2022-08-01T02:31:48;95470.03;;;17.92;100.00
11676;BME280;5894;42.768;23.404;2022-08-01T02:34:19;95469.25;;;17.91;100.00
11676;BME280;5894;42.768;23.404;2022-08-01T02:36:47;95471.94;;;17.91;100.00
11676;BME280;5894;42.768;23.404;2022-08-01T02:39:16;95473.81;;;17.91;100.00
11676;BME280;5894;42.768;23.404;2022-08-01T02:41:47;95462.16;;;17.80;100.00
11676;BME280;5894;42.768;23.404;2022-08-01T02:44:18;95468.81;;;17.89;100.00
11676;BME280;5894;42.768;23.404;2022-08-01T02:46:54;95474.09;;;17.86;100.00
11676;BME280;5894;42.768;23.404;2022-08-01T02:49:24;95451.00;;;17.74;100.00
11676;BME280;5894;42.768;23.404;2022-08-01T02:51:54;95458.84;;;17.86;100.00
11676;BME280;5894;42.768;23.404;2022-08-01T02:54:22;95453.03;;;17.81;100.00
11676;BME280;5894;42.768;23.404;2022-08-01T02:56:51;95453.28;;;17.76;100.00
11676;BME280;5894;42.768;23.404;2022-08-01T02:59:22;95456.09;;;17.64;100.00
11676;BME280;5894;42.768;23.404;2022-08-01T03:01:53;95419.59;;;17.33;100.00
11676;BME280;5894;42.768;23.404;2022-08-01T03:04:22;95461.75;;;17.62;100.00
11676;BME280;5894;42.768;23.404;2022-08-01T03:06:50;95460.06;;;17.54;100.00
11676;BME280;5894;42.768;23.404;2022-08-01T03:09:18;95464.44;;;17.46;100.00
11676;BME280;5894;42.768;23.404;2022-08-01T03:11:46;95456.19;;;17.51;100.00
11676;BME280;5894;42.768;23.404;2022-08-01T03:14:14;95427.34;;;17.22;100.00
11676;BME280;5894;42.768;23.404;2022-08-01T03:16:44;95464.09;;;17.48;100.00
11676;BME280;5894;42.768;23.404;2022-08-01T03:19:15;95469.16;;;17.53;100.00
11676;BME280;5894;42.768;23.404;2022-08-01T03:21:43;95466.06;;;17.51;100.00
11676;BME280;5894;42.768;23.404;2022-08-01T03:24:11;95463.66;;;17.46;100.00
11676;BME280;5894;42.768;23.404;2022-08-01T03:26:39;95456.28;;;17.39;100.00
11676;BME280;5894;42.768;23.404;2022-08-01T03:29:11;95466.31;;;17.46;100.00
11676;BME280;5894;42.768;23.404;2022-08-01T03:31:40;95465.84;;;17.40;100.00
11676;BME280;5894;42.768;23.404;2022-08-01T03:34:10;95462.94;;;17.30;100.00
11676;BME280;5894;42.768;23.404;2022-08-01T03:36:43;95472.28;;;17.23;100.00
11676;BME280;5894;42.768;23.404;2022-08-01T03:39:12;95446.97;;;16.98;100.00
11676;BME280;5894;42.768;23.404;2022-08-01T03:41:43;95471.63;;;17.11;100.00
11676;BME280;5894;42.768;23.404;2022-08-01T03:44:14;95478.91;;;17.14;100.00
11676;BME280;5894;42.768;23.404;2022-08-01T03:46:45;95483.84;;;17.12;100.00
11676;BME280;5894;42.768;23.404;2022-08-01T03:49:17;95470.56;;;17.15;100.00
11676;BME280;5894;42.768;23.404;2022-08-01T03:51:47;95476.34;;;17.17;100.00
11676;BME280;5894;42.768;23.404;2022-08-01T03:54:17;95476.25;;;17.14;100.00
11676;BME280;5894;42.768;23.404;2022-08-01T03:56:48;95443.94;;;16.84;100.00
11676;BME280;5894;42.768;23.404;2022-08-01T03:59:17;95463.28;;;16.97;100.00
11676;BME280;5894;42.768;23.404;2022-08-01T04:01:45;95467.66;;;17.05;100.00
11676;BME280;5894;42.768;23.404;2022-08-01T04:04:12;95484.25;;;17.14;100.00
11676;BME280;5894;42.768;23.404;2022-08-01T04:06:40;95409.94;;;16.77;100.00
11676;BME280;5894;42.768;23.404;2022-08-01T04:09:11;95485.28;;;17.25;100.00
11676;BME280;5894;42.768;23.404;2022-08-01T04:11:38;95491.38;;;17.25;100.00
11676;BME280;5894;42.768;23.404;2022-08-01T04:14:05;95483.72;;;17.24;100.00
11676;BME280;5894;42.768;23.404;2022-08-01T04:16:32;95475.31;;;17.22;100.00
11676;BME280;5894;42.768;23.404;2022-08-01T04:19:00;95489.56;;;17.30;100.00
11676;BME280;5894;42.768;23.404;2022-08-01T04:21:28;95485.88;;;17.34;100.00
11676;BME280;5894;42.768;23.404;2022-08-01T04:23:58;95484.75;;;17.35;100.00
11676;BME280;5894;42.768;23.404;2022-08-01T04:26:28;95492.22;;;17.45;100.00
11676;BME280;5894;42.768;23.404;2022-08-01T04:28:56;95488.19;;;17.36;100.00
11676;BME280;5894;42.768;23.404;2022-08-01T04:31:24;95491.44;;;17.45;100.00
11676;BME280;5894;42.768;23.404;2022-08-01T04:33:54;95496.94;;;17.52;100.00
11676;BME280;5894;42.768;23.404;2022-08-01T04:36:23;95482.56;;;17.56;100.00
11676;BME280;5894;42.768;23.404;2022-08-01T04:38:54;95475.16;;;17.66;100.00
11676;BME280;5894;42.768;23.404;2022-08-01T04:41:22;95478.69;;;17.70;100.00
11676;BME280;5894;42.768;23.404;2022-08-01T04:43:51;95480.16;;;17.67;100.00
11676;BME280;5894;42.768;23.404;2022-08-01T04:46:19;95479.63;;;17.77;100.00
11676;BME280;5894;42.768;23.404;2022-08-01T04:48:47;95489.94;;;17.79;100.00
11676;BME280;5894;42.768;23.404;2022-08-01T04:51:15;95498.47;;;17.84;100.00
11676;BME280;5894;42.768;23.404;2022-08-01T04:53:42;95488.56;;;17.85;100.00
11676;BME280;5894;42.768;23.404;2022-08-01T04:56:11;95495.66;;;17.96;100.00
11676;BME280;5894;42.768;23.404;2022-08-01T04:58:38;95488.59;;;18.04;100.00
11676;BME280;5894;42.768;23.404;2022-08-01T05:01:08;95493.63;;;18.09;100.00
11676;BME280;5894;42.768;23.404;2022-08-01T05:03:35;95480.78;;;18.15;100.00
11676;BME280;5894;42.768;23.404;2022-08-01T05:06:02;95422.91;;;17.80;100.00
11676;BME280;5894;42.768;23.404;2022-08-01T05:08:29;95483.38;;;18.30;100.00
11676;BME280;5894;42.768;23.404;2022-08-01T05:10:56;95482.38;;;18.39;100.00
11676;BME280;5894;42.768;23.404;2022-08-01T05:13:23;95478.38;;;18.48;100.00
11676;BME280;5894;42.768;23.404;2022-08-01T05:15:51;95482.53;;;18.65;100.00
11676;BME280;5894;42.768;23.404;2022-08-01T05:18:19;95483.69;;;18.87;100.00
11676;BME280;5894;42.768;23.404;2022-08-01T05:20:47;95482.09;;;19.05;100.00
11676;BME280;5894;42.768;23.404;2022-08-01T05:23:13;95484.75;;;19.28;100.00
11676;BME280;5894;42.768;23.404;2022-08-01T05:25:40;95488.81;;;19.44;100.00
11676;BME280;5894;42.768;23.404;2022-08-01T05:28:07;95488.72;;;19.60;100.00
11676;BME280;5894;42.768;23.404;2022-08-01T05:30:34;95488.94;;;19.78;100.00
11676;BME280;5894;42.768;23.404;2022-08-01T05:33:01;95486.06;;;19.90;100.00
11676;BME280;5894;42.768;23.404;2022-08-01T05:35:29;95484.28;;;20.01;100.00
11676;BME280;5894;42.768;23.404;2022-08-01T05:37:56;95487.06;;;20.08;100.00
11676;BME280;5894;42.768;23.404;2022-08-01T05:40:22;95484.06;;;20.13;100.00
11676;BME280;5894;42.768;23.404;2022-08-01T05:42:49;95486.41;;;20.19;100.00
11676;BME280;5894;42.768;23.404;2022-08-01T05:45:16;95485.28;;;20.20;100.00
11676;BME280;5894;42.768;23.404;2022-08-01T05:47:43;95493.50;;;20.34;100.00
11676;BME280;5894;42.768;23.404;2022-08-01T05:50:10;95480.97;;;20.41;100.00
11676;BME280;5894;42.768;23.404;2022-08-01T05:52:38;95497.59;;;20.58;100.00
11676;BME280;5894;42.768;23.404;2022-08-01T05:55:06;95501.16;;;20.65;100.00
11676;BME280;5894;42.768;23.404;2022-08-01T05:57:33;95501.63;;;20.74;100.00
11676;BME280;5894;42.768;23.404;2022-08-01T05:59:59;95502.09;;;20.83;97.79
11676;BME280;5894;42.768;23.404;2022-08-01T06:02:26;95505.97;;;20.86;95.16
11676;BME280;5894;42.768;23.404;2022-08-01T06:04:53;95502.19;;;20.94;94.99
11676;BME280;5894;42.768;23.404;2022-08-01T06:07:20;95496.94;;;21.05;96.35
11676;BME280;5894;42.768;23.404;2022-08-01T06:09:48;95493.94;;;21.13;96.32
11676;BME280;5894;42.768;23.404;2022-08-01T06:12:15;95496.00;;;21.27;96.28
11676;BME280;5894;42.768;23.404;2022-08-01T06:14:42;95472.97;;;21.22;95.12
11676;BME280;5894;42.768;23.404;2022-08-01T06:17:09;95501.88;;;21.43;92.66
11676;BME280;5894;42.768;23.404;2022-08-01T06:19:35;95499.94;;;21.40;91.08
11676;BME280;5894;42.768;23.404;2022-08-01T06:22:02;95492.72;;;21.48;89.46
11676;BME280;5894;42.768;23.404;2022-08-01T06:24:29;95501.53;;;21.48;90.70
11676;BME280;5894;42.768;23.404;2022-08-01T06:26:57;95493.47;;;21.45;89.40
11676;BME280;5894;42.768;23.404;2022-08-01T06:29:24;95490.03;;;21.51;89.17
11676;BME280;5894;42.768;23.404;2022-08-01T06:31:51;95480.50;;;21.54;89.92
11676;BME280;5894;42.768;23.404;2022-08-01T06:34:18;95485.53;;;21.59;89.92
11676;BME280;5894;42.768;23.404;2022-08-01T06:36:45;95481.25;;;21.54;88.04
11676;BME280;5894;42.768;23.404;2022-08-01T06:39:12;95479.38;;;21.58;87.45
11676;BME280;5894;42.768;23.404;2022-08-01T06:41:39;95482.84;;;21.63;87.09
11676;BME280;5894;42.768;23.404;2022-08-01T06:44:08;95485.97;;;21.72;86.31
11676;BME280;5894;42.768;23.404;2022-08-01T06:46:35;95469.81;;;21.65;87.69
11676;BME280;5894;42.768;23.404;2022-08-01T06:49:01;95463.72;;;21.71;87.50
11676;BME280;5894;42.768;23.404;2022-08-01T06:51:28;95469.16;;;21.82;82.24
11676;BME280;5894;42.768;23.404;2022-08-01T06:53:55;95462.66;;;21.86;81.92
11676;BME280;5894;42.768;23.404;2022-08-01T06:56:22;95447.31;;;21.80;82.32
11676;BME280;5894;42.768;23.404;2022-08-01T06:58:52;95458.91;;;22.02;80.24
11676;BME280;5894;42.768;23.404;2022-08-01T07:01:23;95444.34;;;21.99;82.25
11676;BME280;5894;42.768;23.404;2022-08-01T07:03:49;95450.97;;;22.19;81.32
11676;BME280;5894;42.768;23.404;2022-08-01T07:06:18;95460.94;;;22.26;76.79
11676;BME280;5894;42.768;23.404;2022-08-01T07:08:44;95458.69;;;22.31;77.48
11676;BME280;5894;42.768;23.404;2022-08-01T07:11:11;95456.41;;;22.44;76.58
11676;BME280;5894;42.768;23.404;2022-08-01T07:13:38;95457.56;;;22.54;78.22
11676;BME280;5894;42.768;23.404;2022-08-01T07:16:05;95464.53;;;22.62;75.58
11676;BME280;5894;42.768;23.404;2022-08-01T07:18:33;95455.72;;;22.72;76.63
11676;BME280;5894;42.768;23.404;2022-08-01T07:21:00;95466.50;;;22.86;77.15
11676;BME280;5894;42.768;23.404;2022-08-01T07:23:26;95452.69;;;22.91;75.82
11676;BME280;5894;42.768;23.404;2022-08-01T07:25:53;95469.63;;;23.02;75.99
11676;BME280;5894;42.768;23.404;2022-08-01T07:28:20;95425.78;;;22.95;75.18
11676;BME280;5894;42.768;23.404;2022-08-01T07:30:47;95461.53;;;23.27;73.15
11676;BME280;5894;42.768;23.404;2022-08-01T07:33:14;95454.59;;;23.37;71.32
11676;BME280;5894;42.768;23.404;2022-08-01T07:35:42;95448.47;;;23.43;69.56
11676;BME280;5894;42.768;23.404;2022-08-01T07:38:10;95451.56;;;23.53;69.37
11676;BME280;5894;42.768;23.404;2022-08-01T07:40:37;95452.69;;;23.62;70.06
11676;BME280;5894;42.768;23.404;2022-08-01T07:43:04;95454.97;;;23.74;69.39
11676;BME280;5894;42.768;23.404;2022-08-01T07:45:31;95449.56;;;23.82;69.10
11676;BME280;5894;42.768;23.404;2022-08-01T07:48:02;95451.47;;;23.92;67.91
11676;BME280;5894;42.768;23.404;2022-08-01T07:50:29;95440.66;;;24.06;66.72
11676;BME280;5894;42.768;23.404;2022-08-01T07:52:57;95445.63;;;24.11;65.46
11676;BME280;5894;42.768;23.404;2022-08-01T07:55:24;95442.53;;;24.12;63.83
11676;BME280;5894;42.768;23.404;2022-08-01T07:57:51;95437.88;;;24.31;64.23
11676;BME280;5894;42.768;23.404;2022-08-01T08:00:18;95437.44;;;24.43;63.93
11676;BME280;5894;42.768;23.404;2022-08-01T08:02:45;95433.13;;;24.56;64.29
11676;BME280;5894;42.768;23.404;2022-08-01T08:05:12;95440.72;;;24.75;62.92
11676;BME280;5894;42.768;23.404;2022-08-01T08:07:39;95447.53;;;24.94;62.32
11676;BME280;5894;42.768;23.404;2022-08-01T08:10:08;95443.16;;;25.14;61.16
11676;BME280;5894;42.768;23.404;2022-08-01T08:12:35;95449.28;;;25.18;58.75
11676;BME280;5894;42.768;23.404;2022-08-01T08:15:02;95441.78;;;25.40;58.90
11676;BME280;5894;42.768;23.404;2022-08-01T08:17:31;95444.25;;;25.69;55.76
11676;BME280;5894;42.768;23.404;2022-08-01T08:19:59;95434.94;;;25.73;56.93
11676;BME280;5894;42.768;23.404;2022-08-01T08:22:26;95428.88;;;25.62;57.50
11676;BME280;5894;42.768;23.404;2022-08-01T08:24:52;95446.31;;;25.91;55.90
11676;BME280;5894;42.768;23.404;2022-08-01T08:27:21;95437.72;;;26.00;58.38
11676;BME280;5894;42.768;23.404;2022-08-01T08:29:47;95450.75;;;26.09;54.87
11676;BME280;5894;42.768;23.404;2022-08-01T08:32:14;95448.22;;;26.28;54.59
11676;BME280;5894;42.768;23.404;2022-08-01T08:34:41;95442.31;;;26.37;53.76
11676;BME280;5894;42.768;23.404;2022-08-01T08:37:08;95441.69;;;26.56;54.06
11676;BME280;5894;42.768;23.404;2022-08-01T08:39:35;95440.03;;;26.66;54.52
11676;BME280;5894;42.768;23.404;2022-08-01T08:42:06;95436.94;;;26.64;55.64
11676;BME280;5894;42.768;23.404;2022-08-01T08:44:34;95438.66;;;26.51;54.08
11676;BME280;5894;42.768;23.404;2022-08-01T08:47:02;95433.47;;;26.37;56.30
11676;BME280;5894;42.768;23.404;2022-08-01T08:49:31;95428.91;;;26.30;57.21
11676;BME280;5894;42.768;23.404;2022-08-01T08:52:00;95411.94;;;26.26;56.25
11676;BME280;5894;42.768;23.404;2022-08-01T08:54:28;95415.81;;;26.25;55.42
11676;BME280;5894;42.768;23.404;2022-08-01T08:56:56;95422.72;;;26.29;55.55
11676;BME280;5894;42.768;23.404;2022-08-01T08:59:23;95414.25;;;26.27;56.64
11676;BME280;5894;42.768;23.404;2022-08-01T09:01:52;95412.25;;;26.35;56.64
11676;BME280;5894;42.768;23.404;2022-08-01T09:04:20;95404.59;;;26.26;56.42
11676;BME280;5894;42.768;23.404;2022-08-01T09:06:48;95414.69;;;26.22;57.20
11676;BME280;5894;42.768;23.404;2022-08-01T09:09:15;95407.88;;;26.11;56.11
11676;BME280;5894;42.768;23.404;2022-08-01T09:11:42;95377.66;;;25.89;56.78
11676;BME280;5894;42.768;23.404;2022-08-01T09:14:09;95334.56;;;25.78;58.85
11676;BME280;5894;42.768;23.404;2022-08-01T09:16:40;95404.00;;;26.12;57.85
11676;BME280;5894;42.768;23.404;2022-08-01T09:19:12;95405.53;;;26.13;58.28
11676;BME280;5894;42.768;23.404;2022-08-01T09:21:40;95403.16;;;26.18;56.67
11676;BME280;5894;42.768;23.404;2022-08-01T09:24:14;95402.78;;;26.16;56.03
11676;BME280;5894;42.768;23.404;2022-08-01T09:26:42;95408.16;;;26.20;55.11
11676;BME280;5894;42.768;23.404;2022-08-01T09:29:18;95411.66;;;26.17;55.52
11676;BME280;5894;42.768;23.404;2022-08-01T09:31:45;95402.88;;;26.09;55.83
11676;BME280;5894;42.768;23.404;2022-08-01T09:34:15;95397.53;;;26.06;55.67
11676;BME280;5894;42.768;23.404;2022-08-01T09:36:49;95383.97;;;26.09;56.77
11676;BME280;5894;42.768;23.404;2022-08-01T09:39:19;95390.66;;;25.98;56.20
11676;BME280;5894;42.768;23.404;2022-08-01T09:41:46;95396.41;;;26.03;55.85
11676;BME280;5894;42.768;23.404;2022-08-01T09:44:14;95387.47;;;26.06;56.27
11676;BME280;5894;42.768;23.404;2022-08-01T09:47:00;95382.75;;;26.14;56.87
11676;BME280;5894;42.768;23.404;2022-08-01T09:49:30;95400.44;;;26.18;56.24
11676;BME280;5894;42.768;23.404;2022-08-01T09:51:59;95406.97;;;26.21;56.62
11676;BME280;5894;42.768;23.404;2022-08-01T09:54:31;95404.66;;;26.23;55.25
11676;BME280;5894;42.768;23.404;2022-08-01T09:57:12;95416.59;;;26.25;55.66
11676;BME280;5894;42.768;23.404;2022-08-01T09:59:41;95402.75;;;26.20;54.45
11676;BME280;5894;42.768;23.404;2022-08-01T10:02:10;95402.50;;;26.07;55.31
11676;BME280;5894;42.768;23.404;2022-08-01T10:04:47;95394.66;;;26.16;55.21
11676;BME280;5894;42.768;23.404;2022-08-01T10:07:14;95389.31;;;26.13;54.34
11676;BME280;5894;42.768;23.404;2022-08-01T10:09:42;95392.72;;;26.17;54.85
11676;BME280;5894;42.768;23.404;2022-08-01T10:12:11;95391.16;;;26.19;54.19
11676;BME280;5894;42.768;23.404;2022-08-01T10:14:39;95394.56;;;26.27;55.73
11676;BME280;5894;42.768;23.404;2022-08-01T10:17:08;95386.53;;;26.20;54.03
11676;BME280;5894;42.768;23.404;2022-08-01T10:19:36;95386.44;;;26.27;54.11
11676;BME280;5894;42.768;23.404;2022-08-01T10:22:08;95394.19;;;26.25;54.22
11676;BME280;5894;42.768;23.404;2022-08-01T10:24:37;95384.16;;;26.25;53.71
11676;BME280;5894;42.768;23.404;2022-08-01T10:27:07;95326.72;;;25.87;54.91
11676;BME280;5894;42.768;23.404;2022-08-01T10:29:41;95377.13;;;26.31;54.61
11676;BME280;5894;42.768;23.404;2022-08-01T10:32:09;95354.41;;;26.25;55.24
11676;BME280;5894;42.768;23.404;2022-08-01T10:34:37;95370.00;;;26.45;54.92
11676;BME280;5894;42.768;23.404;2022-08-01T10:37:05;95364.19;;;26.46;54.50
11676;BME280;5894;42.768;23.404;2022-08-01T10:39:35;95360.63;;;26.53;55.44
11676;BME280;5894;42.768;23.404;2022-08-01T10:42:02;95370.50;;;26.63;55.98
11676;BME280;5894;42.768;23.404;2022-08-01T10:44:30;95361.88;;;26.72;56.19
11676;BME280;5894;42.768;23.404;2022-08-01T10:47:03;95350.19;;;26.78;54.70
11676;BME280;5894;42.768;23.404;2022-08-01T10:49:34;95365.94;;;26.83;55.63
11676;BME280;5894;42.768;23.404;2022-08-01T10:52:04;95358.88;;;26.89;53.88
11676;BME280;5894;42.768;23.404;2022-08-01T10:54:39;95376.22;;;26.95;54.27
11676;BME280;5894;42.768;23.404;2022-08-01T10:57:06;95361.09;;;26.98;53.72
11676;BME280;5894;42.768;23.404;2022-08-01T10:59:34;95355.25;;;26.99;54.31
11676;BME280;5894;42.768;23.404;2022-08-01T11:02:05;95357.91;;;27.03;54.86
11676;BME280;5894;42.768;23.404;2022-08-01T11:04:39;95357.22;;;26.99;53.32
11676;BME280;5894;42.768;23.404;2022-08-01T11:07:15;95361.88;;;26.98;53.54
11676;BME280;5894;42.768;23.404;2022-08-01T11:09:44;95360.56;;;27.07;52.57
11676;BME280;5894;42.768;23.404;2022-08-01T11:12:12;95356.16;;;27.16;51.70
11676;BME280;5894;42.768;23.404;2022-08-01T11:15:17;95345.91;;;27.27;53.21
11676;BME280;5894;42.768;23.404;2022-08-01T11:17:51;95351.94;;;27.35;52.12
11676;BME280;5894;42.768;23.404;2022-08-01T11:20:19;95353.44;;;27.39;50.95
11676;BME280;5894;42.768;23.404;2022-08-01T11:26:09;95351.53;;;27.60;51.63
11676;BME280;5894;42.768;23.404;2022-08-01T11:28:37;95345.25;;;27.63;52.42
11676;BME280;5894;42.768;23.404;2022-08-01T11:31:27;95347.34;;;27.75;51.73
11676;BME280;5894;42.768;23.404;2022-08-01T11:33:54;95321.63;;;27.63;52.09
11676;BME280;5894;42.768;23.404;2022-08-01T11:36:21;95346.53;;;27.78;51.32
11676;BME280;5894;42.768;23.404;2022-08-01T11:38:49;95336.88;;;27.77;49.95
11676;BME280;5894;42.768;23.404;2022-08-01T11:41:39;95337.41;;;27.88;51.55
11676;BME280;5894;42.768;23.404;2022-08-01T11:44:06;95293.72;;;27.66;48.38
11676;BME280;5894;42.768;23.404;2022-08-01T11:46:55;95324.47;;;27.96;50.25
11676;BME280;5894;42.768;23.404;2022-08-01T11:49:45;95340.59;;;28.03;51.25
11676;BME280;5894;42.768;23.404;2022-08-01T11:52:14;95327.53;;;28.18;51.57
11676;BME280;5894;42.768;23.404;2022-08-01T11:54:44;95334.25;;;28.29;50.92
11676;BME280;5894;42.768;23.404;2022-08-01T11:57:13;95328.16;;;28.41;51.27
11676;BME280;5894;42.768;23.404;2022-08-01T11:59:42;95336.81;;;28.53;49.48
11676;BME280;5894;42.768;23.404;2022-08-01T12:02:15;95319.84;;;28.48;48.43
11676;BME280;5894;42.768;23.404;2022-08-01T12:04:47;95329.63;;;28.62;49.62
11676;BME280;5894;42.768;23.404;2022-08-01T12:07:14;95335.03;;;28.62;49.30
11676;BME280;5894;42.768;23.404;2022-08-01T12:09:41;95320.13;;;28.54;48.73
11676;BME280;5894;42.768;23.404;2022-08-01T12:12:08;95320.13;;;28.54;49.16
11676;BME280;5894;42.768;23.404;2022-08-01T12:14:36;95325.34;;;28.45;48.10
11676;BME280;5894;42.768;23.404;2022-08-01T12:17:04;95327.34;;;28.44;49.24
11676;BME280;5894;42.768;23.404;2022-08-01T12:19:32;95330.88;;;28.58;48.81
11676;BME280;5894;42.768;23.404;2022-08-01T12:22:10;95331.16;;;28.79;49.56
11676;BME280;5894;42.768;23.404;2022-08-01T12:24:39;95313.78;;;28.93;49.46
11676;BME280;5894;42.768;23.404;2022-08-01T12:27:07;95324.47;;;29.29;49.90
11676;BME280;5894;42.768;23.404;2022-08-01T12:29:38;95320.84;;;29.36;49.21
11676;BME280;5894;42.768;23.404;2022-08-01T12:32:21;95327.44;;;29.35;48.34
11676;BME280;5894;42.768;23.404;2022-08-01T12:34:50;95334.03;;;29.37;48.64
11676;BME280;5894;42.768;23.404;2022-08-01T12:37:17;95328.03;;;29.42;49.01
11676;BME280;5894;42.768;23.404;2022-08-01T12:39:45;95302.41;;;29.43;48.79
11676;BME280;5894;42.768;23.404;2022-08-01T12:42:12;95331.28;;;29.66;46.92
11676;BME280;5894;42.768;23.404;2022-08-01T12:44:43;95326.91;;;29.56;46.27
11676;BME280;5894;42.768;23.404;2022-08-01T12:47:11;95280.13;;;29.19;47.73
11676;BME280;5894;42.768;23.404;2022-08-01T12:49:38;95331.19;;;29.41;47.79
11676;BME280;5894;42.768;23.404;2022-08-01T12:52:08;95331.56;;;29.27;47.98
11676;BME280;5894;42.768;23.404;2022-08-01T12:55:07;95329.41;;;29.18;48.30
11676;BME280;5894;42.768;23.404;2022-08-01T12:57:36;95310.69;;;29.07;48.63
11676;BME280;5894;42.768;23.404;2022-08-01T13:00:16;95324.53;;;28.97;48.70
11676;BME280;5894;42.768;23.404;2022-08-01T13:02:44;95314.47;;;28.81;48.66
11676;BME280;5894;42.768;23.404;2022-08-01T13:05:11;95314.63;;;28.74;49.58
11676;BME280;5894;42.768;23.404;2022-08-01T13:07:41;95318.16;;;28.71;50.15
11676;BME280;5894;42.768;23.404;2022-08-01T13:10:09;95330.13;;;28.57;50.42
11676;BME280;5894;42.768;23.404;2022-08-01T13:12:37;95314.44;;;28.48;49.87